Time;durP1;ratioP1;P1;durP2;ratioP2;P2;SDS_P1;SDS_P2;PMS_P1;PMS_P2;Temp;Humidity;BMP_temperature;BMP_pressure;BME280_temperature;BME280_humidity;BME280_pressure;Samples;Min_cycle;Max_cycle;Signal;HPM_P1;HPM_P2
2021/09/24 00:00:19;;;;;;;5.05;3.60;;;;;;;15.72;61.33;95761.58;1667280;84;22136;-82
2021/09/24 00:02:47;;;;;;;4.65;3.58;;;;;;;15.72;61.23;95759.48;1668462;84;21008;-82
2021/09/24 00:05:12;;;;;;;4.58;3.50;;;;;;;15.71;61.59;95764.43;1670678;84;21008;-82
2021/09/24 00:07:38;;;;;;;4.12;3.72;;;;;;;15.70;61.75;95760.22;1666527;85;21732;-82
2021/09/24 00:10:06;;;;;;;5.10;3.52;;;;;;;15.68;61.36;95765.69;1675747;84;20988;-82
2021/09/24 00:12:32;;;;;;;7.15;4.47;;;;;;;15.68;61.91;95784.53;1668062;84;21035;-82
2021/09/24 00:14:58;;;;;;;4.20;3.05;;;;;;;15.65;61.91;95762.73;1678720;83;21065;-82
2021/09/24 00:17:24;;;;;;;5.00;3.65;;;;;;;15.63;61.81;95776.06;1684640;84;21394;-82
2021/09/24 00:19:50;;;;;;;6.00;3.90;;;;;;;15.61;61.69;95791.97;1671236;84;21012;-82
2021/09/24 00:22:15;;;;;;;4.78;3.60;;;;;;;15.63;61.85;95794.91;1663377;84;21598;-81
2021/09/24 00:24:41;;;;;;;4.55;3.55;;;;;;;15.61;62.06;95780.19;1661265;84;21070;-82
2021/09/24 00:27:07;;;;;;;4.45;3.33;;;;;;;15.61;62.22;95783.32;1677811;84;21104;-81
2021/09/24 00:29:32;;;;;;;4.85;3.25;;;;;;;15.56;62.06;95785.28;1641129;84;21181;-82
2021/09/24 00:31:58;;;;;;;4.55;3.75;;;;;;;15.55;62.22;95776.35;1679064;84;21028;-81
2021/09/24 00:34:24;;;;;;;5.17;3.20;;;;;;;15.53;62.35;95783.12;1689447;83;21032;-82
2021/09/24 00:36:50;;;;;;;4.03;3.40;;;;;;;15.52;62.33;95784.16;1675529;84;20991;-81
2021/09/24 00:39:16;;;;;;;5.20;3.50;;;;;;;15.51;62.04;95775.22;1673341;84;21564;-81
2021/09/24 00:41:41;;;;;;;6.28;3.80;;;;;;;15.51;62.50;95787.80;1699165;83;21013;-81
2021/09/24 00:44:07;;;;;;;4.92;3.55;;;;;;;15.51;62.05;95781.77;1705872;83;21066;-82
2021/09/24 00:46:33;;;;;;;4.78;3.20;;;;;;;15.50;62.18;95788.83;1672558;84;21009;-81
2021/09/24 00:48:59;;;;;;;6.95;4.95;;;;;;;15.50;62.32;95789.34;1685488;84;21054;-81
2021/09/24 00:51:25;;;;;;;4.80;3.52;;;;;;;15.50;62.35;95785.41;1668884;84;21083;-81
2021/09/24 00:54:00;;;;;;;5.45;4.15;;;;;;;15.49;62.55;95782.00;1692837;83;21128;-82
2021/09/24 00:56:30;;;;;;;4.87;3.20;;;;;;;15.49;62.72;95791.67;1662910;84;21179;-82
2021/09/24 00:59:03;;;;;;;5.45;3.27;;;;;;;15.48;62.70;95783.02;1689751;83;21016;-81
2021/09/24 01:01:30;;;;;;;4.55;2.98;;;;;;;15.47;62.72;95796.34;1675580;84;21041;-81
2021/09/24 01:03:57;;;;;;;5.37;3.58;;;;;;;15.46;62.64;95798.67;1692880;83;21048;-81
2021/09/24 01:06:25;;;;;;;3.90;2.98;;;;;;;15.44;62.86;95793.64;1697651;84;21078;-81
2021/09/24 01:08:54;;;;;;;5.30;3.80;;;;;;;15.44;62.89;95798.88;1686900;83;21361;-81
2021/09/24 01:11:21;;;;;;;5.33;3.72;;;;;;;15.44;62.77;95791.02;1671460;84;21031;-82
2021/09/24 01:13:49;;;;;;;5.08;3.35;;;;;;;15.43;62.64;95792.05;1680272;84;21074;-81
2021/09/24 01:16:19;;;;;;;4.97;3.22;;;;;;;15.44;63.09;95777.93;1693286;83;21020;-81
2021/09/24 01:18:48;;;;;;;3.85;3.30;;;;;;;15.43;62.79;95793.36;1694413;83;21412;-81
2021/09/24 01:21:16;;;;;;;3.75;3.30;;;;;;;15.42;63.21;95785.73;1693520;84;21024;-82
2021/09/24 01:23:50;;;;;;;6.17;3.30;;;;;;;15.41;63.37;95791.98;1687972;84;21048;-81
2021/09/24 01:26:17;;;;;;;4.65;3.20;;;;;;;15.40;62.72;95797.73;1692599;84;21150;-81
2021/09/24 01:28:56;;;;;;;5.97;3.70;;;;;;;15.42;63.08;95787.03;1692915;83;21336;-81
2021/09/24 01:31:23;;;;;;;4.20;3.17;;;;;;;15.41;63.23;95788.86;1683478;84;21116;-81
2021/09/24 01:33:49;;;;;;;3.95;2.87;;;;;;;15.40;63.34;95796.94;1679208;83;21012;-82
2021/09/24 01:36:21;;;;;;;4.95;3.30;;;;;;;15.39;63.19;95792.73;1660808;84;21061;-82
2021/09/24 01:38:49;;;;;;;4.35;3.30;;;;;;;15.39;63.14;95786.19;1677016;84;21493;-82
2021/09/24 01:41:16;;;;;;;8.18;5.22;;;;;;;15.38;63.39;95778.05;1672023;84;21415;-82
2021/09/24 01:43:44;;;;;;;5.70;3.55;;;;;;;15.36;63.70;95776.17;1700643;84;21100;-82
2021/09/24 01:46:13;;;;;;;5.03;3.35;;;;;;;15.35;63.46;95775.89;1707162;84;22080;-82
2021/09/24 01:48:43;;;;;;;4.05;3.10;;;;;;;15.36;63.48;95777.48;1677503;84;21475;-82
2021/09/24 01:51:11;;;;;;;;;;;;;;;15.38;62.86;95781.46;1664293;85;21081;-82
2021/09/24 01:53:39;;;;;;;3.83;2.90;;;;;;;15.41;63.17;95777.59;1658624;85;20170;-82
2021/09/24 01:56:06;;;;;;;5.72;3.80;;;;;;;15.41;63.17;95771.05;1635734;86;21112;-82
2021/09/24 01:58:34;;;;;;;4.47;3.22;;;;;;;15.40;63.34;95777.31;1634933;86;21417;-82
2021/09/24 02:01:01;;;;;;;5.85;3.55;;;;;;;15.40;63.59;95778.61;1662202;84;21415;-82
2021/09/24 02:03:29;;;;;;;4.15;3.55;;;;;;;15.39;63.74;95779.13;1682128;84;20985;-82
2021/09/24 02:05:56;;;;;;;3.75;3.00;;;;;;;15.37;63.71;95781.18;1698518;83;21097;-82
2021/09/24 02:08:27;;;;;;;4.33;3.27;;;;;;;15.35;64.03;95781.92;1678137;84;21052;-82
2021/09/24 02:10:53;;;;;;;4.50;3.30;;;;;;;15.33;63.65;95776.63;1655960;84;21500;-82
2021/09/24 02:13:19;;;;;;;3.35;3.05;;;;;;;15.31;63.81;95775.04;1676152;83;21383;-82
2021/09/24 02:15:46;;;;;;;4.03;3.17;;;;;;;15.29;64.01;95781.49;1666450;84;21059;-82
2021/09/24 02:18:12;;;;;;;3.85;3.02;;;;;;;15.27;63.91;95771.25;1668476;84;21382;-82
2021/09/24 02:20:43;;;;;;;5.45;3.40;;;;;;;15.26;63.86;95773.59;1661703;84;21032;-82
2021/09/24 02:23:11;;;;;;;5.50;3.25;;;;;;;15.26;64.09;95785.36;1668323;84;21135;-81
2021/09/24 02:25:38;;;;;;;3.67;3.02;;;;;;;15.26;64.12;95782.75;1697819;84;21021;-82
2021/09/24 02:28:05;;;;;;;4.55;3.52;;;;;;;15.25;64.09;95776.43;1681412;84;21348;-82
2021/09/24 02:30:34;;;;;;;4.00;3.50;;;;;;;15.24;64.78;95780.87;1702171;84;21138;-81
2021/09/24 02:33:00;;;;;;;5.45;3.55;;;;;;;15.24;64.99;95782.18;1669938;84;21073;-82
2021/09/24 02:35:26;;;;;;;5.62;3.47;;;;;;;15.23;65.31;95796.80;1689760;84;21034;-82
2021/09/24 02:37:52;;;;;;;5.17;3.35;;;;;;;15.17;66.59;95802.94;1634867;86;22004;-82
2021/09/24 02:40:19;;;;;;;4.87;3.35;;;;;;;15.07;67.07;95794.31;1690948;84;21002;-82
2021/09/24 02:42:46;;;;;;;4.50;3.65;;;;;;;14.95;68.08;95793.48;1689493;84;20990;-82
2021/09/24 02:45:13;;;;;;;5.22;3.62;;;;;;;14.82;67.92;95795.00;1647613;85;21085;-82
2021/09/24 02:47:38;;;;;;;4.87;3.52;;;;;;;14.70;69.06;95813.25;1681840;84;21020;-82
2021/09/24 02:50:05;;;;;;;3.95;3.12;;;;;;;14.61;69.38;95806.20;1693705;83;21036;-82
2021/09/24 02:52:32;;;;;;;6.53;3.95;;;;;;;14.53;70.25;95820.10;1676406;84;21079;-82
2021/09/24 02:54:58;;;;;;;4.35;3.95;;;;;;;14.44;70.37;95833.96;1704935;84;21478;-82
2021/09/24 02:57:23;;;;;;;5.55;3.98;;;;;;;14.41;70.62;95822.10;1685096;83;21007;-82
2021/09/24 02:59:49;;;;;;;4.75;3.95;;;;;;;14.37;70.85;95828.80;1671967;84;20993;-82
2021/09/24 03:02:15;;;;;;;4.75;3.52;;;;;;;14.33;71.28;95838.60;1665579;84;21045;-82
2021/09/24 03:04:41;;;;;;;6.65;3.60;;;;;;;14.30;71.91;95859.92;1686827;83;21076;-82
2021/09/24 03:07:06;;;;;;;4.67;3.58;;;;;;;14.26;72.09;95874.44;1699663;83;21040;-82
2021/09/24 03:09:32;;;;;;;5.20;3.70;;;;;;;14.24;72.02;95876.48;1662002;83;21029;-82
2021/09/24 03:11:58;;;;;;;9.63;3.95;;;;;;;14.24;72.21;95875.17;1707220;84;20981;-82
2021/09/24 03:14:23;;;;;;;4.70;3.90;;;;;;;14.21;72.38;95869.87;1667051;84;21430;-82
2021/09/24 03:16:49;;;;;;;6.58;4.10;;;;;;;14.16;73.15;95872.34;1688654;84;20981;-82
2021/09/24 03:19:19;;;;;;;6.75;4.40;;;;;;;14.10;72.49;95882.33;1695141;84;21096;-82
2021/09/24 03:21:44;;;;;;;5.90;4.58;;;;;;;14.05;73.24;95888.72;1702157;84;21422;-82
2021/09/24 03:24:09;;;;;;;6.60;4.37;;;;;;;14.00;73.22;95898.52;1689940;83;21074;-82
2021/09/24 03:26:35;;;;;;;8.60;5.35;;;;;;;13.99;73.64;95900.00;1677683;84;21049;-82
2021/09/24 03:29:01;;;;;;;7.10;5.03;;;;;;;14.00;73.51;95895.10;1676145;84;21075;-82
2021/09/24 03:31:27;;;;;;;6.12;5.25;;;;;;;13.99;73.81;95891.69;1681731;83;21089;-82
2021/09/24 03:33:52;;;;;;;6.78;5.58;;;;;;;13.95;73.66;95894.42;1673443;84;21139;-82
2021/09/24 03:36:18;;;;;;;7.95;5.90;;;;;;;13.92;74.32;95892.23;1676655;84;21064;-82
2021/09/24 03:38:44;;;;;;;7.00;5.08;;;;;;;13.87;74.19;95896.01;1684172;83;21024;-82
2021/09/24 03:41:10;;;;;;;6.08;4.97;;;;;;;13.85;74.87;95915.02;1686065;83;21054;-82
2021/09/24 03:43:35;;;;;;;7.22;4.75;;;;;;;13.84;74.86;95910.80;1697490;84;21024;-82
2021/09/24 03:46:02;;;;;;;6.08;4.92;;;;;;;13.83;75.37;95913.13;1683980;84;21050;-81
2021/09/24 03:48:27;;;;;;;6.55;4.87;;;;;;;13.82;76.13;95937.61;1690747;84;21414;-82
2021/09/24 03:50:53;;;;;;;5.50;4.37;;;;;;;13.73;77.74;95957.98;1695261;84;21011;-82
2021/09/24 03:53:19;;;;;;;5.33;4.60;;;;;;;13.66;77.20;95947.27;1686718;83;21036;-81
2021/09/24 03:55:44;;;;;;;4.55;3.17;;;;;;;13.63;79.76;95943.78;1665607;83;21442;-82
2021/09/24 03:58:10;;;;;;;4.67;2.98;;;;;;;13.56;78.02;95928.17;1692747;84;21335;-81
2021/09/24 04:00:36;;;;;;;4.30;2.20;;;;;;;13.48;78.75;95933.63;1657627;84;20977;-81
2021/09/24 04:03:02;;;;;;;4.80;2.60;;;;;;;13.41;78.85;95934.98;1669506;83;21103;-81
2021/09/24 04:05:27;;;;;;;3.08;2.50;;;;;;;13.39;78.73;95962.30;1678883;84;21079;-81
2021/09/24 04:07:53;;;;;;;2.62;2.05;;;;;;;13.37;79.32;95957.80;1660510;84;21027;-81
2021/09/24 04:10:19;;;;;;;5.37;2.17;;;;;;;13.32;79.01;95953.70;1667255;84;21506;-82
2021/09/24 04:12:45;;;;;;;2.75;1.62;;;;;;;13.26;79.34;95964.98;1695786;84;21012;-81
2021/09/24 04:15:11;;;;;;;3.98;2.05;;;;;;;13.22;79.18;95969.81;1675633;83;21082;-82
2021/09/24 04:17:37;;;;;;;3.95;1.92;;;;;;;13.19;79.52;95972.34;1668534;85;21039;-82
2021/09/24 04:20:04;;;;;;;3.12;2.20;;;;;;;13.17;79.57;95970.89;1684513;84;21079;-82
2021/09/24 04:22:29;;;;;;;4.03;1.72;;;;;;;13.12;79.34;95961.59;1679413;84;21044;-81
2021/09/24 04:24:55;;;;;;;4.40;2.10;;;;;;;13.11;79.58;95965.20;1701345;84;21509;-81
2021/09/24 04:27:21;;;;;;;3.98;2.00;;;;;;;13.09;79.34;95973.75;1686291;84;21006;-81
2021/09/24 04:29:47;;;;;;;1.80;1.20;;;;;;;13.08;79.74;95972.95;1664849;83;21035;-81
2021/09/24 04:32:13;;;;;;;3.50;1.50;;;;;;;13.05;78.83;95984.31;1674243;84;21059;-81
2021/09/24 04:34:38;;;;;;;3.45;1.62;;;;;;;13.04;78.48;95989.23;1665458;84;21538;-81
2021/09/24 04:37:04;;;;;;;2.72;1.82;;;;;;;13.01;78.46;95987.80;1694246;84;20942;-82
2021/09/24 04:39:30;;;;;;;4.58;1.30;;;;;;;12.98;78.62;95986.13;1670884;84;21509;-81
2021/09/24 04:41:56;;;;;;;2.77;1.17;;;;;;;12.93;78.22;95984.14;1689292;84;21012;-81
2021/09/24 04:44:22;;;;;;;3.90;1.20;;;;;;;12.92;78.22;95983.34;1673470;84;21060;-82
2021/09/24 04:46:48;;;;;;;3.35;1.50;;;;;;;12.89;77.59;95975.94;1684666;84;21016;-82
2021/09/24 04:49:14;;;;;;;2.58;1.30;;;;;;;12.89;77.97;95981.65;1699337;84;21025;-82
2021/09/24 04:51:40;;;;;;;4.30;1.50;;;;;;;12.87;77.64;95992.80;1665488;84;21040;-82
2021/09/24 04:54:06;;;;;;;3.27;1.30;;;;;;;12.82;77.28;96010.33;1622478;86;21103;-82
2021/09/24 04:56:32;;;;;;;3.50;1.50;;;;;;;12.77;77.11;96011.45;1636403;86;21440;-81
2021/09/24 04:58:58;;;;;;;5.00;1.65;;;;;;;12.78;77.43;95997.92;1623130;87;21187;-81
2021/09/24 05:01:23;;;;;;;5.30;2.10;;;;;;;12.78;77.14;96008.34;1616347;87;21167;-81
2021/09/24 05:03:49;;;;;;;3.83;1.90;;;;;;;12.79;77.01;96021.67;1682065;84;21014;-82
2021/09/24 05:06:15;;;;;;;2.12;1.10;;;;;;;12.79;76.95;96019.07;1678693;84;20985;-81
2021/09/24 05:08:41;;;;;;;4.83;1.57;;;;;;;12.75;76.66;96025.70;1681097;83;21036;-82
2021/09/24 05:11:07;;;;;;;4.87;2.27;;;;;;;12.69;76.39;96026.50;1664117;84;21086;-81
2021/09/24 05:13:33;;;;;;;5.42;1.35;;;;;;;12.63;76.56;96021.61;1682153;84;21037;-81
2021/09/24 05:15:58;;;;;;;5.28;1.52;;;;;;;12.60;76.26;96029.84;1669109;84;21116;-82
2021/09/24 05:18:24;;;;;;;3.37;1.55;;;;;;;12.58;76.09;96038.36;1686401;84;21127;-82
2021/09/24 05:20:50;;;;;;;4.60;1.60;;;;;;;12.58;76.25;96035.75;1702358;83;21075;-82
2021/09/24 05:23:16;;;;;;;4.10;1.65;;;;;;;12.52;76.16;96033.44;1683613;83;21415;-82
2021/09/24 05:25:42;;;;;;;5.15;1.77;;;;;;;12.47;76.01;96033.25;1691732;84;21040;-81
2021/09/24 05:28:08;;;;;;;4.40;1.95;;;;;;;12.47;76.01;96032.45;1674705;83;21003;-81
2021/09/24 05:30:34;;;;;;;3.87;1.40;;;;;;;12.44;75.72;96036.27;1693846;84;20982;-82
2021/09/24 05:33:00;;;;;;;4.17;1.72;;;;;;;12.46;75.73;96045.18;1700913;83;21375;-81
2021/09/24 05:35:26;;;;;;;4.90;2.70;;;;;;;12.46;75.06;96028.23;1695074;83;21059;-81
2021/09/24 05:37:52;;;;;;;4.47;2.92;;;;;;;12.44;74.95;96039.38;1685551;84;22103;-82
2021/09/24 05:40:18;;;;;;;5.80;2.22;;;;;;;12.42;75.00;96042.68;1681887;84;21064;-82
2021/09/24 05:42:43;;;;;;;6.00;2.55;;;;;;;12.40;74.42;96045.49;1694020;83;21110;-82
2021/09/24 05:45:11;;;;;;;4.33;2.10;;;;;;;12.38;74.42;96050.11;1680475;84;21057;-82
2021/09/24 05:47:38;;;;;;;4.08;2.22;;;;;;;12.37;74.57;96042.49;1699509;83;21020;-82
2021/09/24 05:50:11;;;;;;;6.45;3.15;;;;;;;12.37;74.51;96045.90;1692552;83;22132;-82
2021/09/24 05:52:34;;;;;;;6.17;2.22;;;;;;;12.38;74.28;96052.71;1672291;84;21077;-81
2021/09/24 05:54:59;;;;;;;5.45;2.37;;;;;;;12.38;73.61;96048.80;1672788;84;21072;-82
2021/09/24 05:57:25;;;;;;;5.55;2.30;;;;;;;12.38;74.27;96055.31;1690204;84;21005;-82
2021/09/24 05:59:52;;;;;;;5.72;2.17;;;;;;;12.36;73.90;96069.02;1630386;87;21057;-81
2021/09/24 06:02:17;;;;;;;5.62;2.52;;;;;;;12.36;74.25;96067.72;1681286;84;21003;-82
2021/09/24 06:04:43;;;;;;;5.17;2.40;;;;;;;12.32;72.87;96062.61;1671944;84;21091;-82
2021/09/24 06:07:09;;;;;;;10.63;3.45;;;;;;;12.27;72.67;96065.02;1674067;84;21021;-81
2021/09/24 06:09:35;;;;;;;6.22;2.70;;;;;;;12.25;72.44;96070.94;1693368;84;21456;-81
2021/09/24 06:12:01;;;;;;;5.10;2.92;;;;;;;12.25;72.09;96080.05;1698823;83;21017;-82
2021/09/24 06:14:27;;;;;;;6.17;2.45;;;;;;;12.23;72.15;96078.16;1662897;85;21135;-82
2021/09/24 06:16:52;;;;;;;8.63;2.30;;;;;;;12.22;71.22;96089.58;1695495;84;21437;-82
2021/09/24 06:19:18;;;;;;;4.15;1.77;;;;;;;12.18;70.45;96085.73;1643547;86;21412;-81
2021/09/24 06:21:45;;;;;;;3.77;1.37;;;;;;;12.13;70.28;96083.73;1647237;86;21085;-81
2021/09/24 06:24:11;;;;;;;5.45;1.47;;;;;;;12.11;70.58;96071.92;1638220;85;21068;-81
2021/09/24 06:26:37;;;;;;;10.28;3.95;;;;;;;12.11;70.18;96077.13;1619718;87;21053;-82
2021/09/24 06:29:03;;;;;;;5.05;2.92;;;;;;;12.10;70.20;96080.23;1688157;84;21056;-81
2021/09/24 06:31:32;;;;;;;6.85;3.15;;;;;;;12.12;70.91;96087.84;1688306;84;21020;-82
2021/09/24 06:33:58;;;;;;;5.22;2.67;;;;;;;12.14;71.07;96091.85;1688245;84;21032;-82
2021/09/24 06:36:25;;;;;;;6.53;2.30;;;;;;;12.13;70.61;96095.96;1639351;87;21066;-81
2021/09/24 06:38:50;;;;;;;3.08;1.75;;;;;;;12.06;70.43;96088.65;1668239;84;21087;-82
2021/09/24 06:41:16;;;;;;;5.72;2.15;;;;;;;12.04;70.59;96105.77;1690529;84;21060;-81
2021/09/24 06:43:42;;;;;;;5.30;2.62;;;;;;;12.05;70.97;96106.58;1688285;84;21054;-81
2021/09/24 06:46:08;;;;;;;5.58;2.72;;;;;;;12.06;70.34;96109.48;1694149;84;21445;-82
2021/09/24 06:48:34;;;;;;;6.30;2.12;;;;;;;12.07;70.89;96118.89;1683737;83;21027;-82
2021/09/24 06:51:03;;;;;;;4.33;2.12;;;;;;;12.07;70.95;96125.41;1666048;84;20985;-81
2021/09/24 06:53:28;;;;;;;5.80;2.37;;;;;;;12.07;71.15;96121.50;1663169;83;21107;-81
2021/09/24 06:55:57;;;;;;;8.78;2.40;;;;;;;12.07;71.47;96122.80;1666009;85;21053;-81
2021/09/24 06:58:24;;;;;;;5.90;1.50;;;;;;;12.06;71.25;96127.21;1676635;84;20990;-81
2021/09/24 07:00:50;;;;;;;4.25;1.75;;;;;;;12.08;70.66;96133.02;1693864;84;21060;-81
2021/09/24 07:03:15;;;;;;;7.70;3.12;;;;;;;12.06;70.71;96138.13;1687385;83;21072;-81
2021/09/24 07:05:41;;;;;;;9.45;3.10;;;;;;;12.03;70.92;96142.70;1683786;84;21431;-82
2021/09/24 07:08:07;;;;;;;6.33;2.90;;;;;;;11.99;71.02;96141.50;1689563;84;21076;-81
2021/09/24 07:10:32;;;;;;;8.18;2.98;;;;;;;11.98;71.11;96138.59;1700167;84;21056;-82
2021/09/24 07:12:58;;;;;;;3.72;2.37;;;;;;;11.97;71.53;96142.70;1669572;84;21135;-81
2021/09/24 07:15:24;;;;;;;8.90;2.50;;;;;;;11.96;70.71;96141.09;1675339;84;21534;-82
2021/09/24 07:17:50;;;;;;;7.95;2.40;;;;;;;11.93;71.31;96141.48;1687254;84;21059;-82
2021/09/24 07:20:16;;;;;;;7.17;2.30;;;;;;;11.92;71.66;96151.10;1678175;84;21464;-81
2021/09/24 07:22:42;;;;;;;7.45;2.50;;;;;;;11.93;71.56;96157.91;1684110;83;20973;-81
2021/09/24 07:25:08;;;;;;;8.10;2.47;;;;;;;11.97;71.55;96154.41;1681424;84;21093;-81
2021/09/24 07:27:34;;;;;;;5.00;2.15;;;;;;;11.97;71.50;96160.42;1661759;84;21087;-81
2021/09/24 07:30:00;;;;;;;7.00;2.37;;;;;;;11.96;71.54;96156.72;1704528;84;21104;-81
2021/09/24 07:32:26;;;;;;;6.75;2.60;;;;;;;11.95;71.49;96162.42;1682586;83;20984;-81
2021/09/24 07:34:52;;;;;;;6.28;2.60;;;;;;;11.98;71.38;96165.13;1701968;84;21100;-81
2021/09/24 07:37:17;;;;;;;7.37;3.62;;;;;;;12.01;71.61;96160.83;1675179;84;21049;-81
2021/09/24 07:39:43;;;;;;;9.70;3.72;;;;;;;12.01;71.41;96162.93;1658725;85;21154;-81
2021/09/24 07:42:09;;;;;;;6.20;2.92;;;;;;;12.01;71.50;96167.34;1697644;84;21424;-81
2021/09/24 07:44:35;;;;;;;6.78;2.90;;;;;;;11.98;71.63;96168.53;1699312;84;21020;-82
2021/09/24 07:47:00;;;;;;;8.63;3.00;;;;;;;11.96;71.73;96164.03;1679313;84;21024;-81
2021/09/24 07:49:26;;;;;;;8.63;4.03;;;;;;;11.93;71.71;96172.73;1676724;84;21079;-81
2021/09/24 07:51:53;;;;;;;6.67;3.00;;;;;;;11.98;71.72;96174.24;1670042;84;21014;-81
2021/09/24 07:54:21;;;;;;;9.28;3.27;;;;;;;12.06;72.19;96178.49;1675457;84;21115;-82
2021/09/24 07:56:49;;;;;;;6.47;3.22;;;;;;;12.13;72.37;96181.91;1680710;84;21059;-82
2021/09/24 07:59:15;;;;;;;7.37;2.83;;;;;;;12.19;71.79;96181.11;1689828;84;21459;-81
2021/09/24 08:01:42;;;;;;;7.80;2.80;;;;;;;12.25;72.25;96192.06;1694406;84;21000;-82
2021/09/24 08:04:09;;;;;;;6.90;2.92;;;;;;;12.30;72.03;96188.36;1704743;83;21087;-81
2021/09/24 08:06:35;;;;;;;7.22;2.55;;;;;;;12.34;71.64;96193.47;1693161;84;21039;-81
2021/09/24 08:09:00;;;;;;;8.88;3.20;;;;;;;12.35;71.17;96185.96;1676397;84;21313;-81
2021/09/24 08:11:26;;;;;;;6.67;3.22;;;;;;;12.39;70.92;96185.09;1677061;84;21135;-82
2021/09/24 08:13:52;;;;;;;6.62;2.58;;;;;;;12.48;71.43;96186.50;1692834;84;21096;-81
2021/09/24 08:16:18;;;;;;;9.70;2.90;;;;;;;12.56;71.18;96184.52;1675033;84;21105;-82
2021/09/24 08:18:43;;;;;;;5.20;2.58;;;;;;;12.61;70.83;96192.53;1676377;84;21462;-82
2021/09/24 08:21:09;;;;;;;7.90;2.70;;;;;;;12.67;69.48;96190.13;1688713;84;21000;-82
2021/09/24 08:23:37;;;;;;;5.45;2.40;;;;;;;12.71;70.00;96197.87;1694052;83;21004;-81
2021/09/24 08:26:04;;;;;;;9.35;2.95;;;;;;;12.83;69.89;96197.05;1679515;84;21000;-82
2021/09/24 08:28:29;;;;;;;9.48;2.55;;;;;;;12.96;70.01;96192.85;1694740;84;21049;-82
2021/09/24 08:30:56;;;;;;;6.80;2.87;;;;;;;13.03;68.89;96178.83;1675764;84;21091;-82
2021/09/24 08:33:22;;;;;;;6.20;3.05;;;;;;;13.05;68.62;96193.77;1663805;84;21033;-82
2021/09/24 08:35:48;;;;;;;8.58;2.70;;;;;;;13.09;68.80;96194.96;1697176;84;21443;-82
2021/09/24 08:38:14;;;;;;;8.73;2.70;;;;;;;13.10;68.22;96195.27;1689866;83;21069;-82
2021/09/24 08:40:39;;;;;;;41.90;19.23;;;;;;;13.13;68.50;96207.09;1674811;84;22240;-82
2021/09/24 08:43:05;;;;;;;17.20;8.00;;;;;;;13.17;67.83;96205.68;1679490;84;21056;-81
2021/09/24 08:45:32;;;;;;;11.57;6.45;;;;;;;13.18;67.27;96201.62;1682857;84;21097;-81
2021/09/24 08:48:02;;;;;;;8.08;4.30;;;;;;;13.21;67.49;96201.72;1702599;84;21103;-81
2021/09/24 08:50:29;;;;;;;6.42;3.42;;;;;;;13.20;66.13;96215.27;1662794;84;21435;-81
2021/09/24 08:52:55;;;;;;;11.00;5.40;;;;;;;13.14;65.77;96213.41;1678138;83;21037;-81
2021/09/24 08:55:21;;;;;;;24.05;11.05;;;;;;;13.07;67.18;96212.63;1675133;84;21117;-82
2021/09/24 08:57:47;;;;;;;11.73;5.05;;;;;;;13.05;66.60;96219.84;1687861;84;21428;-82
2021/09/24 09:00:13;;;;;;;7.12;3.10;;;;;;;13.05;66.82;96221.16;1665647;84;21004;-81
2021/09/24 09:03:02;;;;;;;13.75;6.47;;;;;;;13.08;66.26;96229.08;1671651;84;21058;-81
2021/09/24 09:05:42;;;;;;;33.53;17.10;;;;;;;13.09;65.90;96216.33;1673542;84;21040;-81
2021/09/24 09:08:13;;;;;;;17.70;7.60;;;;;;;13.15;65.86;96232.47;1670210;84;21056;-82
2021/09/24 09:10:59;;;;;;;7.70;2.83;;;;;;;13.31;65.62;96220.35;1681490;83;22022;-81
2021/09/24 09:13:41;;;;;;;19.20;9.23;;;;;;;13.46;64.90;96221.44;1660041;84;21032;-81
2021/09/24 09:16:22;;;;;;;46.92;22.48;;;;;;;13.63;65.21;96225.73;1686165;84;21450;-81
2021/09/24 09:18:50;;;;;;;17.02;9.50;;;;;;;13.77;65.68;96215.05;1686565;84;21380;-81
2021/09/24 09:21:19;;;;;;;21.33;11.80;;;;;;;13.77;62.29;96224.19;1685866;84;21121;-81
2021/09/24 09:23:48;;;;;;;79.82;50.60;;;;;;;13.62;62.70;96236.67;1657958;84;21108;-82
2021/09/24 09:26:15;;;;;;;18.10;10.00;;;;;;;13.52;64.04;96237.61;1685706;83;21104;-81
2021/09/24 09:28:54;;;;;;;17.87;10.68;;;;;;;13.49;64.35;96220.52;1643429;84;21041;-81
2021/09/24 09:31:32;;;;;;;13.13;7.35;;;;;;;13.44;62.45;96239.11;1657349;85;21064;-81
2021/09/24 09:34:01;;;;;;;22.37;13.55;;;;;;;13.40;64.08;96224.88;1673737;84;21045;-82
2021/09/24 09:36:31;;;;;;;9.90;6.08;;;;;;;13.39;63.60;96227.98;1683465;84;21588;-81
2021/09/24 09:38:57;;;;;;;7.30;3.33;;;;;;;13.40;64.20;96228.79;1684393;83;21004;-81
2021/09/24 09:41:23;;;;;;;12.18;6.95;;;;;;;13.35;63.84;96228.09;1672529;84;21454;-81
2021/09/24 09:43:53;;;;;;;12.18;7.22;;;;;;;13.33;64.53;96233.20;1671029;84;21099;-81
2021/09/24 09:46:26;;;;;;;27.25;18.95;;;;;;;13.32;63.76;96237.61;1672506;83;21093;-81
2021/09/24 09:49:14;;;;;;;25.43;18.12;;;;;;;13.30;64.52;96228.38;1685580;84;21087;-81
2021/09/24 09:51:43;;;;;;;25.72;17.55;;;;;;;13.38;65.08;96230.80;1701646;84;21056;-81
2021/09/24 09:54:11;;;;;;;60.38;39.20;;;;;;;13.49;66.12;96240.10;1668047;84;21162;-81
2021/09/24 09:56:42;;;;;;;11.03;5.25;;;;;;;13.56;65.35;96238.80;1678804;84;21134;-81
2021/09/24 09:59:29;;;;;;;23.90;13.45;;;;;;;13.69;64.28;96242.70;1614719;87;21084;-81
2021/09/24 10:02:17;;;;;;;12.33;7.12;;;;;;;13.87;64.60;96246.48;1688187;83;21006;-81
2021/09/24 10:04:47;;;;;;;12.25;6.85;;;;;;;14.07;63.34;96266.30;1662897;85;21060;-81
2021/09/24 10:07:17;;;;;;;10.20;5.42;;;;;;;14.24;63.28;96259.30;1675571;85;21111;-81
2021/09/24 10:09:45;;;;;;;11.53;7.05;;;;;;;14.43;63.19;96255.80;1680483;84;21149;-81
2021/09/24 10:12:20;;;;;;;9.55;6.62;;;;;;;14.46;61.96;96250.17;1674029;83;20957;-82
2021/09/24 10:14:49;;;;;;;6.20;2.80;;;;;;;14.50;63.47;96259.73;1677486;83;21046;-81
2021/09/24 10:17:15;;;;;;;10.90;3.70;;;;;;;14.59;62.16;96264.49;1695757;84;21006;-81
2021/09/24 10:19:44;;;;;;;6.50;3.77;;;;;;;14.67;62.62;96264.77;1690220;84;21043;-81
2021/09/24 10:22:11;;;;;;;10.35;5.00;;;;;;;14.72;62.92;96267.55;1677837;84;21083;-82
2021/09/24 10:24:40;;;;;;;8.38;4.47;;;;;;;14.82;62.45;96277.56;1673404;84;21036;-81
2021/09/24 10:27:08;;;;;;;7.70;3.45;;;;;;;14.78;61.90;96279.77;1669113;84;21040;-81
2021/09/24 10:29:37;;;;;;;8.18;3.60;;;;;;;14.71;61.84;96281.64;1673577;84;21047;-81
2021/09/24 10:32:25;;;;;;;7.42;3.08;;;;;;;14.61;62.19;96291.23;1690534;84;21004;-82
2021/09/24 10:35:05;;;;;;;9.60;6.20;;;;;;;14.52;62.05;96286.47;1697261;84;21004;-81
2021/09/24 10:37:34;;;;;;;8.38;3.58;;;;;;;14.47;61.64;96294.91;1654024;85;21107;-81
2021/09/24 10:40:02;;;;;;;9.23;2.85;;;;;;;14.40;62.02;96275.82;1671439;84;21126;-81
2021/09/24 10:42:38;;;;;;;6.15;3.12;;;;;;;14.26;61.80;96275.58;1686855;84;21105;-81
2021/09/24 10:45:23;;;;;;;9.40;4.97;;;;;;;14.20;61.80;96271.98;1688960;84;21050;-81
2021/09/24 10:48:00;;;;;;;6.15;1.95;;;;;;;14.23;62.99;96285.94;1673382;84;21033;-81
2021/09/24 10:50:37;;;;;;;6.85;2.37;;;;;;;14.18;60.96;96277.12;1669603;84;21519;-81
2021/09/24 10:53:18;;;;;;;4.67;2.33;;;;;;;14.16;62.50;96269.50;1702084;84;21854;-81
2021/09/24 10:55:56;;;;;;;9.33;3.17;;;;;;;14.22;62.23;96269.97;1664984;85;21531;-81
2021/09/24 10:58:33;;;;;;;6.78;2.70;;;;;;;14.26;63.45;96272.95;1695293;84;21054;-81
2021/09/24 11:01:16;;;;;;;7.37;2.60;;;;;;;14.33;62.37;96278.98;1672345;85;21081;-82
2021/09/24 11:03:55;;;;;;;6.45;2.60;;;;;;;14.34;62.18;96277.46;1684541;84;21107;-81
2021/09/24 11:06:48;;;;;;;7.87;2.58;;;;;;;14.42;63.32;96280.33;1684568;84;21084;-81
2021/09/24 11:09:19;;;;;;;8.43;4.08;;;;;;;14.57;62.04;96267.83;1669770;84;21048;-81
2021/09/24 11:12:03;;;;;;;5.95;3.08;;;;;;;14.71;63.01;96270.67;1641299;85;21056;-81
2021/09/24 11:14:43;;;;;;;45.28;25.32;;;;;;;14.80;63.19;96265.17;1677018;84;21063;-81
2021/09/24 11:17:11;;;;;;;19.35;11.48;;;;;;;14.74;63.14;96269.44;1673565;85;20961;-81
2021/09/24 11:19:49;;;;;;;32.93;18.87;;;;;;;14.74;63.13;96269.95;1677204;84;21026;-81
2021/09/24 11:22:26;;;;;;;8.00;4.37;;;;;;;14.70;61.81;96272.19;1680728;84;21032;-81
2021/09/24 11:25:00;;;;;;;6.37;2.77;;;;;;;14.56;61.31;96278.50;1689710;84;21120;-81
2021/09/24 11:27:45;;;;;;;6.60;3.10;;;;;;;14.52;61.64;96296.92;1688700;84;21365;-81
2021/09/24 11:30:20;;;;;;;12.98;8.08;;;;;;;14.52;62.08;96278.12;1683508;84;21403;-81
2021/09/24 11:32:51;;;;;;;7.83;3.55;;;;;;;14.64;62.32;96289.53;1680840;83;21103;-81
2021/09/24 11:35:44;;;;;;;7.87;4.05;;;;;;;14.77;62.62;96290.45;1691074;83;21005;-81